Time;durP1;ratioP1;P1;durP2;ratioP2;P2;SDS_P1;SDS_P2;PMS_P1;PMS_P2;Temp;Humidity;BMP_temperature;BMP_pressure;BME280_temperature;BME280_humidity;BME280_pressure;Samples;Min_cycle;Max_cycle;Signal;HPM_P1;HPM_P2
2023/09/23 00:01:21;;;;;;;64.15;33.20;;;;;;;9.55;100.00;100753.84;5066759;28;20411;-78
2023/09/23 00:03:47;;;;;;;60.00;31.52;;;;;;;9.49;100.00;100749.63;5055418;28;20040;-78
2023/09/23 00:06:13;;;;;;;54.95;31.30;;;;;;;9.47;100.00;100748.78;5064433;28;20025;-78
2023/09/23 00:08:39;;;;;;;53.78;31.67;;;;;;;9.46;100.00;100741.88;5066622;28;20035;-78
2023/09/23 00:11:07;;;;;;;57.90;30.45;;;;;;;9.43;100.00;100751.50;5059987;28;20020;-78
2023/09/23 00:13:33;;;;;;;61.72;31.40;;;;;;;9.43;100.00;100752.34;5057500;28;20490;-78
2023/09/23 00:15:58;;;;;;;59.40;30.60;;;;;;;9.43;100.00;100754.09;5057575;28;20108;-78
2023/09/23 00:18:24;;;;;;;82.57;32.22;;;;;;;9.43;100.00;100754.94;5067157;28;20028;-78
2023/09/23 00:20:49;;;;;;;68.32;32.30;;;;;;;9.40;100.00;100759.34;5062077;28;20017;-78
2023/09/23 00:23:15;;;;;;;59.25;29.67;;;;;;;9.41;100.00;100753.25;5066252;28;20149;-78
2023/09/23 00:25:40;;;;;;;66.75;31.10;;;;;;;9.38;100.00;100756.75;5067665;28;20026;-78
2023/09/23 00:28:10;;;;;;;49.28;27.67;;;;;;;9.42;100.00;100758.44;5066166;28;20044;-78
2023/09/23 00:30:36;;;;;;;61.20;28.58;;;;;;;9.45;100.00;100768.78;5064808;28;20024;-78
2023/09/23 00:33:02;;;;;;;52.67;26.20;;;;;;;9.46;100.00;100774.84;5065325;28;20036;-78
2023/09/23 00:35:28;;;;;;;71.97;27.30;;;;;;;9.46;100.00;100770.50;5066647;28;20138;-78
2023/09/23 00:37:53;;;;;;;75.93;28.15;;;;;;;9.42;100.00;100763.66;5070702;28;20075;-78
2023/09/23 00:40:30;;;;;;;72.45;28.75;;;;;;;9.45;100.00;100765.31;5066235;28;20052;-78
2023/09/23 00:42:56;;;;;;;74.85;26.98;;;;;;;9.44;100.00;100772.25;5066927;28;20107;-78
2023/09/23 00:45:25;;;;;;;63.83;25.90;;;;;;;9.46;100.00;100775.69;5062574;28;20033;-78
2023/09/23 00:47:52;;;;;;;65.75;24.98;;;;;;;9.46;100.00;100783.50;5068208;28;20120;-78
2023/09/23 00:50:20;;;;;;;56.92;23.55;;;;;;;9.45;100.00;100781.81;5064854;28;20025;-78
2023/09/23 00:52:49;;;;;;;62.35;23.13;;;;;;;9.51;100.00;100778.19;5065166;28;20061;-78
2023/09/23 00:55:16;;;;;;;44.78;21.25;;;;;;;9.50;100.00;100782.56;5063134;28;20119;-78
2023/09/23 00:57:43;;;;;;;47.45;21.33;;;;;;;9.51;100.00;100783.41;5053270;28;20061;-78
2023/09/23 01:00:24;;;;;;;57.72;21.75;;;;;;;9.51;100.00;100781.66;5063334;28;20111;-78
2023/09/23 01:02:49;;;;;;;50.63;21.17;;;;;;;9.49;100.00;100775.63;5061378;28;20074;-78
2023/09/23 01:05:18;;;;;;;48.50;20.52;;;;;;;9.52;100.00;100785.13;5065073;28;20553;-78
2023/09/23 01:07:45;;;;;;;60.95;21.25;;;;;;;9.48;100.00;100775.66;5062280;28;20125;-78
2023/09/23 01:10:12;;;;;;;47.63;21.02;;;;;;;9.48;100.00;100794.75;5061616;28;20112;-78
2023/09/23 01:12:37;;;;;;;57.58;19.92;;;;;;;9.47;100.00;100792.16;5062461;28;20388;-78
2023/09/23 01:15:03;;;;;;;46.25;19.20;;;;;;;9.51;100.00;100797.25;5068931;28;20494;-78
2023/09/23 01:17:29;;;;;;;63.55;20.00;;;;;;;9.51;100.00;100794.66;5061986;28;20056;-78
2023/09/23 01:19:54;;;;;;;48.20;19.92;;;;;;;9.60;100.00;100794.50;5056509;28;20067;-78
2023/09/23 01:22:23;;;;;;;52.65;19.27;;;;;;;9.63;100.00;100803.13;5060601;28;20028;-78
2023/09/23 01:24:48;;;;;;;45.38;17.20;;;;;;;9.61;100.00;100808.34;5058600;28;20036;-78
2023/09/23 01:27:14;;;;;;;49.00;17.63;;;;;;;9.58;100.00;100809.28;5064032;28;20029;-78
2023/09/23 01:29:39;;;;;;;48.90;17.40;;;;;;;9.59;100.00;100802.34;5061605;28;20021;-78
2023/09/23 01:32:10;;;;;;;39.70;16.42;;;;;;;9.61;100.00;100804.03;5069936;28;20107;-78
2023/09/23 01:34:36;;;;;;;43.22;16.77;;;;;;;9.65;100.00;100814.38;5061195;28;20033;-78
2023/09/23 01:37:01;;;;;;;55.67;17.02;;;;;;;9.63;100.00;100803.97;5061820;28;20071;-78
2023/09/23 01:39:26;;;;;;;47.22;17.00;;;;;;;9.67;100.00;100821.25;5066186;28;20075;-78
2023/09/23 01:41:53;;;;;;;50.80;17.48;;;;;;;9.68;100.00;100811.69;5052112;28;20064;-78
2023/09/23 01:44:19;;;;;;;42.20;16.33;;;;;;;9.75;100.00;100821.97;5067300;28;20020;-78
2023/09/23 01:46:44;;;;;;;40.80;16.48;;;;;;;9.77;100.00;100824.53;5066376;28;20082;-78
2023/09/23 01:49:09;;;;;;;57.30;17.33;;;;;;;9.76;100.00;100822.81;5067972;28;20021;-78
2023/09/23 01:51:35;;;;;;;41.42;16.00;;;;;;;9.80;100.00;100824.47;5064839;28;20040;-78
2023/09/23 01:54:01;;;;;;;36.92;14.90;;;;;;;9.74;100.00;100825.44;5063786;28;20056;-78
2023/09/23 01:56:26;;;;;;;41.50;15.73;;;;;;;9.69;100.00;100814.28;5064540;28;20500;-78
2023/09/23 01:58:51;;;;;;;35.95;14.65;;;;;;;9.71;100.00;100824.66;5063251;28;20120;-78
2023/09/23 02:01:16;;;;;;;37.45;14.27;;;;;;;9.58;100.00;100824.91;5066863;28;20028;-77
2023/09/23 02:03:42;;;;;;;37.08;14.70;;;;;;;9.55;100.00;100831.94;5061819;28;20053;-78
2023/09/23 02:06:07;;;;;;;34.50;13.88;;;;;;;9.49;100.00;100830.28;5061787;28;20380;-78
2023/09/23 02:08:32;;;;;;;33.78;13.73;;;;;;;9.45;100.00;100831.25;5062871;28;20400;-78
2023/09/23 02:10:58;;;;;;;39.25;13.63;;;;;;;9.44;100.00;100836.47;5064029;28;20029;-78
2023/09/23 02:13:23;;;;;;;31.00;13.38;;;;;;;9.41;100.00;100845.19;5057457;28;20119;-78
2023/09/23 02:15:49;;;;;;;46.85;12.93;;;;;;;9.39;100.00;100844.38;5061390;28;20550;-78
2023/09/23 02:18:15;;;;;;;35.03;12.20;;;;;;;9.35;100.00;100847.88;5061439;28;20072;-78
2023/09/23 02:20:40;;;;;;;32.50;11.70;;;;;;;9.35;100.00;100850.47;5067073;28;20507;-78
2023/09/23 02:23:06;;;;;;;40.78;12.40;;;;;;;9.28;100.00;100838.47;5064415;28;20079;-78
2023/09/23 02:25:31;;;;;;;39.75;12.18;;;;;;;9.31;100.00;100859.25;5064327;28;20073;-78
2023/09/23 02:27:57;;;;;;;30.05;11.57;;;;;;;9.30;100.00;100855.78;5063201;28;20103;-78
2023/09/23 02:30:23;;;;;;;23.48;10.65;;;;;;;9.27;100.00;100855.00;5056504;28;20025;-78
2023/09/23 02:32:48;;;;;;;30.27;11.63;;;;;;;9.28;100.00;100865.34;5062100;28;20197;-78
2023/09/23 02:35:15;;;;;;;26.17;10.88;;;;;;;9.28;100.00;100861.91;5058840;28;20028;-78
2023/09/23 02:37:44;;;;;;;26.52;10.80;;;;;;;9.27;100.00;100875.81;5064527;28;20110;-78
2023/09/23 02:40:14;;;;;;;35.53;11.13;;;;;;;9.25;100.00;100875.81;5062189;28;20036;-78
2023/09/23 02:42:40;;;;;;;33.33;11.05;;;;;;;9.21;100.00;100879.34;5065972;28;20377;-78
2023/09/23 02:45:08;;;;;;;33.88;10.80;;;;;;;9.21;100.00;100883.69;5059856;28;20029;-78
2023/09/23 02:47:34;;;;;;;25.15;9.98;;;;;;;9.14;100.00;100886.41;5067745;28;20028;-78
2023/09/23 02:50:00;;;;;;;24.83;10.00;;;;;;;9.15;100.00;100884.66;5062365;28;20024;-78
2023/09/23 02:52:25;;;;;;;30.50;10.35;;;;;;;9.13;100.00;100881.25;5064313;28;20414;-78
2023/09/23 02:54:54;;;;;;;23.48;9.95;;;;;;;9.17;100.00;100893.31;5057919;28;20062;-78
2023/09/23 02:57:19;;;;;;;24.75;9.32;;;;;;;9.13;100.00;100889.03;5056899;28;20120;-78
2023/09/23 02:59:48;;;;;;;19.75;9.43;;;;;;;9.11;100.00;100891.66;5065171;28;20052;-78
2023/09/23 03:02:20;;;;;;;25.58;9.65;;;;;;;9.11;100.00;100888.19;5060787;28;20380;-78
2023/09/23 03:04:45;;;;;;;24.55;9.70;;;;;;;9.11;100.00;100896.00;5064999;28;20032;-78
2023/09/23 03:07:11;;;;;;;28.23;9.52;;;;;;;9.08;100.00;100891.69;5060353;28;20428;-78
2023/09/23 03:09:43;;;;;;;26.30;8.95;;;;;;;9.09;100.00;100895.16;5066154;28;20490;-78
2023/09/23 03:12:09;;;;;;;22.60;9.75;;;;;;;9.10;100.00;100900.34;5059539;28;20546;-78
2023/09/23 03:14:40;;;;;;;21.73;9.27;;;;;;;9.10;100.00;100900.34;5061970;28;20051;-78
2023/09/23 03:17:07;;;;;;;23.38;8.65;;;;;;;9.08;100.00;100891.69;5059435;28;20033;-78
2023/09/23 03:19:33;;;;;;;26.27;9.00;;;;;;;9.13;100.00;100899.44;5056770;28;20545;-78
2023/09/23 03:22:00;;;;;;;25.10;9.05;;;;;;;9.15;100.00;100902.88;5063637;28;20072;-78
2023/09/23 03:24:28;;;;;;;32.97;8.93;;;;;;;9.09;100.00;100898.66;5057398;28;20048;-78
2023/09/23 03:26:56;;;;;;;21.92;8.27;;;;;;;9.11;100.00;100912.47;5061862;28;20131;-78
2023/09/23 03:29:23;;;;;;;20.90;8.35;;;;;;;9.11;100.00;100915.06;5059985;28;20098;-78
2023/09/23 03:31:49;;;;;;;17.23;8.32;;;;;;;9.10;100.00;100910.75;5060638;28;20028;-78
2023/09/23 03:34:15;;;;;;;23.90;8.90;;;;;;;9.09;100.00;100909.03;5050409;28;20025;-78
2023/09/23 03:36:41;;;;;;;17.77;8.18;;;;;;;9.02;100.00;100904.81;5057477;28;20056;-78
2023/09/23 03:39:08;;;;;;;19.33;8.30;;;;;;;9.07;100.00;100921.22;5057999;28;20044;-78
2023/09/23 03:41:37;;;;;;;25.17;8.10;;;;;;;9.04;100.00;100913.44;5066666;28;20031;-78
2023/09/23 03:44:03;;;;;;;22.92;8.85;;;;;;;9.03;100.00;100916.09;5067259;28;20057;-78
2023/09/23 03:46:29;;;;;;;26.52;8.55;;;;;;;9.01;100.00;100930.84;5056901;28;20029;-78
2023/09/23 03:48:54;;;;;;;22.92;8.98;;;;;;;9.02;100.00;100924.75;5056767;28;20025;-78
2023/09/23 03:51:21;;;;;;;24.35;8.23;;;;;;;8.97;100.00;100921.38;5063309;28;20023;-78
2023/09/23 03:53:48;;;;;;;24.48;8.32;;;;;;;8.97;100.00;100927.44;5061869;28;20526;-78
2023/09/23 03:56:14;;;;;;;26.42;8.60;;;;;;;8.99;100.00;100925.69;5067970;28;20029;-78
2023/09/23 03:58:39;;;;;;;23.80;8.48;;;;;;;8.97;100.00;100930.03;5066400;28;20486;-78
2023/09/23 04:01:13;;;;;;;25.30;8.45;;;;;;;8.94;100.00;100924.03;5068463;28;20028;-78
2023/09/23 04:03:41;;;;;;;26.85;9.13;;;;;;;9.02;100.00;100930.81;5061009;28;20032;-78
2023/09/23 04:06:07;;;;;;;27.42;8.88;;;;;;;9.13;100.00;100933.25;5066335;28;20020;-78
2023/09/23 04:08:32;;;;;;;26.55;9.20;;;;;;;9.22;100.00;100940.03;5060790;28;20040;-78
2023/09/23 04:11:03;;;;;;;24.92;8.75;;;;;;;9.30;100.00;100940.78;5059876;28;20546;-78
2023/09/23 04:13:30;;;;;;;21.60;9.93;;;;;;;9.35;100.00;100950.25;5065464;28;20616;-79
2023/09/23 04:16:00;;;;;;;25.33;9.68;;;;;;;9.32;100.00;100944.22;5065222;28;20114;-79
2023/09/23 04:18:27;;;;;;;20.80;8.57;;;;;;;9.32;100.00;100952.91;5062932;28;20171;-79
2023/09/23 04:20:53;;;;;;;32.13;9.18;;;;;;;9.28;100.00;100955.56;5065123;28;20052;-78
2023/09/23 04:23:19;;;;;;;27.13;8.70;;;;;;;9.19;100.00;100953.09;5061626;28;20017;-79
2023/09/23 04:25:44;;;;;;;26.92;8.50;;;;;;;9.15;100.00;100957.47;5062436;28;20029;-79
2023/09/23 04:28:10;;;;;;;24.88;9.55;;;;;;;9.11;100.00;100966.22;5063221;28;20032;-79
2023/09/23 04:30:35;;;;;;;21.98;8.77;;;;;;;9.06;100.00;100974.13;5062365;28;20174;-78
2023/09/23 04:33:01;;;;;;;22.48;8.70;;;;;;;9.08;100.00;100972.31;5064017;28;20586;-78
2023/09/23 04:35:26;;;;;;;20.30;8.48;;;;;;;9.02;100.00;100964.63;5069630;28;20492;-78
2023/09/23 04:37:53;;;;;;;18.80;9.02;;;;;;;9.03;100.00;100975.91;5062796;28;20140;-78
2023/09/23 04:40:18;;;;;;;23.15;8.80;;;;;;;9.04;100.00;100980.22;5069604;28;20391;-79
2023/09/23 04:42:44;;;;;;;21.92;9.02;;;;;;;9.02;100.00;100979.38;5065234;28;20025;-78
2023/09/23 04:45:11;;;;;;;22.55;9.07;;;;;;;9.02;100.00;100988.03;5070760;28;20456;-78
2023/09/23 04:47:37;;;;;;;28.00;10.25;;;;;;;9.01;100.00;100986.31;5060252;28;20032;-78
2023/09/23 04:50:04;;;;;;;25.85;9.63;;;;;;;8.99;100.00;100980.28;5070133;28;20118;-78
2023/09/23 04:52:31;;;;;;;26.63;9.32;;;;;;;8.97;100.00;100989.84;5063402;28;20110;-78
2023/09/23 04:54:56;;;;;;;23.08;9.25;;;;;;;8.93;100.00;100995.09;5066950;28;20028;-78
2023/09/23 04:57:22;;;;;;;27.00;10.05;;;;;;;8.90;100.00;100991.66;5067987;28;20085;-78
2023/09/23 04:59:48;;;;;;;22.80;9.20;;;;;;;8.89;100.00;100996.88;5062356;28;20048;-78
2023/09/23 05:02:13;;;;;;;32.03;9.35;;;;;;;8.87;100.00;100996.91;5060592;28;20029;-78
2023/09/23 05:04:39;;;;;;;22.02;9.00;;;;;;;8.88;100.00;101005.56;5064827;28;20487;-78
2023/09/23 05:07:04;;;;;;;21.90;9.75;;;;;;;8.85;100.00;101003.88;5061678;28;20090;-77
2023/09/23 05:09:30;;;;;;;22.23;9.05;;;;;;;8.86;100.00;101004.72;5065713;28;20025;-78
2023/09/23 05:11:56;;;;;;;25.95;9.48;;;;;;;8.88;100.00;101015.97;5061698;28;20024;-78
2023/09/23 05:14:21;;;;;;;21.52;9.48;;;;;;;8.85;100.00;101029.00;5062935;28;20119;-78
2023/09/23 05:16:49;;;;;;;29.92;10.23;;;;;;;8.84;100.00;101037.69;5060688;28;20136;-78
2023/09/23 05:19:14;;;;;;;26.05;9.65;;;;;;;8.81;100.00;101035.13;5064900;28;20437;-78
2023/09/23 05:21:40;;;;;;;23.00;9.13;;;;;;;8.78;100.00;101029.97;5061865;28;20036;-78
2023/09/23 05:24:09;;;;;;;30.08;10.18;;;;;;;8.80;100.00;101046.44;5060389;28;20028;-78
2023/09/23 05:26:34;;;;;;;23.27;9.68;;;;;;;8.77;100.00;101044.72;5063561;28;20029;-78
2023/09/23 05:29:00;;;;;;;22.27;9.70;;;;;;;8.73;100.00;101043.03;5062943;28;20031;-78
2023/09/23 05:31:25;;;;;;;23.58;9.52;;;;;;;8.74;100.00;101055.16;5061784;28;20426;-78
2023/09/23 05:33:50;;;;;;;25.23;10.52;;;;;;;8.75;100.00;101063.81;5062764;28;20134;-78
2023/09/23 05:36:16;;;;;;;20.80;9.75;;;;;;;8.75;100.00;101071.59;5065863;28;20043;-78
2023/09/23 05:38:41;;;;;;;25.35;10.10;;;;;;;8.73;100.00;101069.03;5065173;28;20059;-78
2023/09/23 05:41:06;;;;;;;25.05;10.45;;;;;;;8.73;100.00;101070.75;5063369;28;20027;-78
2023/09/23 05:43:33;;;;;;;26.50;10.95;;;;;;;8.75;100.00;101080.25;5065128;28;20032;-78
2023/09/23 05:46:05;;;;;;;28.48;10.63;;;;;;;8.75;100.00;101089.81;5062155;28;20025;-78
2023/09/23 05:48:31;;;;;;;24.77;10.52;;;;;;;8.76;100.00;101086.31;5064343;28;20385;-78
2023/09/23 05:51:04;;;;;;;26.13;10.40;;;;;;;8.72;100.00;101090.69;5064042;28;20107;-78
2023/09/23 05:53:29;;;;;;;23.50;10.43;;;;;;;8.78;100.00;101092.38;5064112;28;20809;-78
2023/09/23 05:55:55;;;;;;;32.15;10.85;;;;;;;8.80;100.00;101090.63;5064536;28;20117;-78
2023/09/23 05:58:20;;;;;;;24.00;10.93;;;;;;;8.83;100.00;101098.38;5063971;28;20055;-78
2023/09/23 06:00:46;;;;;;;25.98;11.05;;;;;;;8.84;100.00;101100.94;5063403;28;20120;-78
2023/09/23 06:03:15;;;;;;;33.85;11.90;;;;;;;8.89;100.00;101104.38;5064596;28;20035;-78
2023/09/23 06:05:41;;;;;;;28.13;11.75;;;;;;;8.94;100.00;101108.63;5063806;28;20104;-78
2023/09/23 06:08:06;;;;;;;30.42;11.52;;;;;;;8.96;100.00;101106.88;5064403;28;20028;-78
2023/09/23 06:10:33;;;;;;;36.50;12.45;;;;;;;8.85;100.00;101097.47;5063823;28;20090;-78
2023/09/23 06:12:58;;;;;;;29.88;11.13;;;;;;;9.03;100.00;101126.75;5066991;28;20031;-78
2023/09/23 06:15:23;;;;;;;31.92;11.82;;;;;;;9.07;100.00;101137.06;5060650;28;20029;-78
2023/09/23 06:17:49;;;;;;;36.78;12.23;;;;;;;9.11;100.00;101141.34;5058984;28;20021;-78
2023/09/23 06:20:15;;;;;;;30.27;11.75;;;;;;;9.16;100.00;101135.25;5064335;28;20016;-78
2023/09/23 06:22:40;;;;;;;37.30;11.65;;;;;;;9.36;100.00;101154.03;5062123;28;20032;-78
2023/09/23 06:25:05;;;;;;;28.15;12.93;;;;;;;9.44;100.00;101157.38;5062519;28;20377;-78
2023/09/23 06:27:31;;;;;;;35.35;12.63;;;;;;;9.49;100.00;101160.81;5059914;28;20021;-78
2023/09/23 06:29:56;;;;;;;35.42;12.98;;;;;;;9.47;100.00;101162.56;5051745;28;20024;-77
2023/09/23 06:32:21;;;;;;;31.40;13.18;;;;;;;9.49;100.00;101162.56;5064692;28;20029;-78
2023/09/23 06:34:47;;;;;;;34.78;12.52;;;;;;;9.56;100.00;101169.38;5061936;28;20032;-78
2023/09/23 06:37:12;;;;;;;30.90;12.07;;;;;;;9.57;100.00;101164.13;5066671;28;20024;-78
2023/09/23 06:39:37;;;;;;;36.63;13.45;;;;;;;9.65;100.00;101181.41;5043599;28;20601;-78
2023/09/23 06:42:03;;;;;;;28.73;11.60;;;;;;;9.64;100.00;101177.94;5060898;28;20059;-79
2023/09/23 06:44:28;;;;;;;29.40;12.90;;;;;;;9.64;100.00;101180.53;5059945;28;20025;-78
2023/09/23 06:46:53;;;;;;;30.67;12.35;;;;;;;9.68;100.00;101183.94;5068272;28;20037;-78
2023/09/23 06:49:19;;;;;;;29.08;12.40;;;;;;;9.73;100.00;101188.22;5054198;28;20025;-78
2023/09/23 06:51:44;;;;;;;38.53;13.30;;;;;;;9.78;100.00;101185.56;5061968;28;20480;-77
2023/09/23 06:54:09;;;;;;;33.05;12.80;;;;;;;9.78;100.00;101190.78;5065030;28;20033;-78
2023/09/23 06:56:36;;;;;;;32.05;13.10;;;;;;;9.84;100.00;101201.06;5063811;28;20048;-78
2023/09/23 06:59:01;;;;;;;36.75;12.88;;;;;;;9.85;100.00;101197.59;5063915;28;20376;-77
2023/09/23 07:01:27;;;;;;;31.48;13.57;;;;;;;9.91;100.00;101200.13;5062875;28;20024;-78
2023/09/23 07:03:52;;;;;;;37.38;13.80;;;;;;;9.95;100.00;101193.97;5063210;28;20021;-78
2023/09/23 07:06:17;;;;;;;39.47;14.38;;;;;;;9.95;100.00;101199.19;5057774;28;20504;-78
2023/09/23 07:08:43;;;;;;;39.10;14.13;;;;;;;10.00;100.00;101210.38;5061806;28;20025;-78
2023/09/23 07:11:12;;;;;;;34.90;14.90;;;;;;;10.03;100.00;101214.69;5056989;28;20032;-79
2023/09/23 07:13:38;;;;;;;41.13;15.52;;;;;;;10.09;100.00;101214.59;5061321;28;20044;-78
2023/09/23 07:16:03;;;;;;;38.42;16.05;;;;;;;10.13;100.00;101218.88;5055321;28;20047;-78
2023/09/23 07:18:29;;;;;;;32.92;15.88;;;;;;;10.12;100.00;101218.91;5061768;28;20128;-78
2023/09/23 07:20:58;;;;;;;37.03;14.73;;;;;;;10.17;100.00;101232.72;5056668;28;20027;-78
2023/09/23 07:23:24;;;;;;;37.35;15.57;;;;;;;10.17;100.00;101232.72;5055345;28;20032;-78
2023/09/23 07:25:49;;;;;;;41.67;15.85;;;;;;;10.22;100.00;101238.72;5059720;28;20055;-78
2023/09/23 07:28:15;;;;;;;42.65;16.40;;;;;;;10.26;100.00;101237.81;5056931;28;20075;-78
2023/09/23 07:30:40;;;;;;;41.90;16.50;;;;;;;10.32;100.00;101241.19;5058276;28;20029;-78
2023/09/23 07:33:05;;;;;;;37.22;15.60;;;;;;;10.40;100.00;101248.91;5060965;28;20462;-79
2023/09/23 07:35:32;;;;;;;42.83;16.67;;;;;;;10.50;100.00;101252.22;5056906;28;20079;-78
2023/09/23 07:37:59;;;;;;;39.20;16.75;;;;;;;10.58;100.00;101262.50;5058616;28;20029;-78
2023/09/23 07:40:25;;;;;;;42.30;17.50;;;;;;;10.60;100.00;101253.78;5060096;28;20025;-78
2023/09/23 07:42:51;;;;;;;43.80;17.00;;;;;;;10.71;100.00;101267.47;5059412;28;20399;-78
2023/09/23 07:45:16;;;;;;;45.03;18.15;;;;;;;10.75;100.00;101273.50;5058190;28;20115;-78
2023/09/23 07:47:41;;;;;;;41.92;17.33;;;;;;;10.83;100.00;101276.84;5058564;28;20048;-78
2023/09/23 07:50:08;;;;;;;43.30;18.00;;;;;;;10.93;100.00;101285.38;5057627;28;20029;-79
2023/09/23 07:52:34;;;;;;;43.10;18.33;;;;;;;10.96;100.00;101280.09;5065084;28;20053;-77
2023/09/23 07:55:00;;;;;;;43.03;18.52;;;;;;;11.00;100.00;101282.63;5058682;28;20108;-78
2023/09/23 07:57:25;;;;;;;40.75;17.70;;;;;;;11.04;100.00;101279.94;5067266;28;20033;-77
2023/09/23 07:59:51;;;;;;;39.88;18.40;;;;;;;11.09;100.00;101288.56;5052464;28;20059;-77
2023/09/23 08:02:16;;;;;;;44.72;18.90;;;;;;;11.12;100.00;101285.91;5063292;28;20028;-77
2023/09/23 08:04:41;;;;;;;45.40;19.08;;;;;;;11.19;100.00;101295.34;5058810;28;20540;-78
2023/09/23 08:07:07;;;;;;;44.60;19.02;;;;;;;11.17;100.00;101289.28;5049264;28;20013;-78
2023/09/23 08:09:32;;;;;;;38.22;18.65;;;;;;;11.28;100.00;101304.72;5062523;28;20017;-78
2023/09/23 08:11:57;;;;;;;41.42;19.05;;;;;;;11.25;100.00;101308.28;5063899;28;20040;-78
2023/09/23 08:14:23;;;;;;;44.33;18.48;;;;;;;11.24;100.00;101311.75;5054998;28;20037;-79
2023/09/23 08:16:51;;;;;;;39.88;19.05;;;;;;;11.23;100.00;101310.88;5053868;28;20051;-78
2023/09/23 08:19:16;;;;;;;34.85;18.55;;;;;;;11.24;100.00;101322.19;5065066;28;20029;-77
2023/09/23 08:21:42;;;;;;;38.70;17.88;;;;;;;11.22;100.00;101332.66;5059445;28;20429;-77
2023/09/23 08:24:07;;;;;;;32.65;17.50;;;;;;;11.31;100.00;101328.16;5056124;28;20032;-78
2023/09/23 08:26:33;;;;;;;36.90;17.20;;;;;;;11.40;100.00;101333.22;5063564;28;20031;-78
2023/09/23 08:28:58;;;;;;;36.25;17.38;;;;;;;11.44;100.00;101342.69;5060440;28;20041;-79
2023/09/23 08:31:24;;;;;;;35.95;17.75;;;;;;;11.52;100.00;101334.72;5068370;28;20012;-78
2023/09/23 08:33:49;;;;;;;36.13;18.63;;;;;;;11.65;100.00;101336.22;5060511;28;20087;-78
2023/09/23 08:36:14;;;;;;;41.70;18.17;;;;;;;11.77;100.00;101349.03;5062517;28;20548;-79
2023/09/23 08:38:41;;;;;;;30.88;18.20;;;;;;;11.91;100.00;101346.16;5067411;28;20476;-78
2023/09/23 08:41:06;;;;;;;36.85;19.15;;;;;;;12.03;100.00;101350.25;5063762;28;20032;-76
2023/09/23 08:43:39;;;;;;;42.50;19.48;;;;;;;11.99;100.00;101357.28;5065435;28;20426;-77
2023/09/23 08:46:05;;;;;;;34.88;18.80;;;;;;;11.97;100.00;101368.66;5058305;28;20540;-76
2023/09/23 08:48:32;;;;;;;33.70;17.35;;;;;;;12.02;100.00;101370.28;5063887;28;20407;-76
2023/09/23 08:50:59;;;;;;;32.00;17.45;;;;;;;12.18;100.00;101376.06;5055398;28;20032;-76
2023/09/23 08:53:26;;;;;;;32.85;16.98;;;;;;;12.23;100.00;101389.03;5065381;28;20081;-76
2023/09/23 08:55:53;;;;;;;29.83;16.52;;;;;;;12.38;100.00;101380.84;5055363;28;20069;-77
2023/09/23 08:58:19;;;;;;;27.83;15.48;;;;;;;12.44;100.00;101387.72;5063067;28;20033;-76
2023/09/23 09:00:46;;;;;;;27.52;15.18;;;;;;;12.56;100.00;101395.28;5058176;28;20491;-77
2023/09/23 09:03:12;;;;;;;28.80;14.15;;;;;;;12.69;100.00;101395.84;5054077;28;20021;-76
2023/09/23 09:05:39;;;;;;;26.38;15.43;;;;;;;12.64;100.00;101394.19;5060413;28;20048;-76
2023/09/23 09:08:08;;;;;;;23.38;13.32;;;;;;;12.68;100.00;101392.34;5058121;28;20025;-77
2023/09/23 09:10:33;;;;;;;22.15;12.52;;;;;;;12.89;100.00;101389.25;5061043;28;20487;-77
2023/09/23 09:13:06;;;;;;;23.05;12.50;;;;;;;13.02;100.00;101397.66;5058881;28;20026;-77
2023/09/23 09:15:35;;;;;;;19.13;11.10;;;;;;;13.41;100.00;101400.19;5054692;28;20032;-77
2023/09/23 09:18:01;;;;;;;16.15;10.30;;;;;;;13.91;100.00;101402.34;5046806;28;20021;-77
2023/09/23 09:20:27;;;;;;;15.70;9.25;;;;;;;14.22;100.00;101407.53;5060371;28;20106;-77
2023/09/23 09:22:52;;;;;;;14.13;8.75;;;;;;;14.24;100.00;101406.59;5065588;28;20518;-77
2023/09/23 09:25:20;;;;;;;11.90;7.05;;;;;;;14.12;100.00;101411.31;5064953;28;20060;-77
2023/09/23 09:27:51;;;;;;;12.45;5.45;;;;;;;13.88;100.00;101411.13;5064644;28;20074;-77
2023/09/23 09:30:17;;;;;;;8.60;5.57;;;;;;;13.87;100.00;101405.94;5065936;28;20028;-77
2023/09/23 09:32:44;;;;;;;8.00;5.40;;;;;;;13.89;100.00;101406.75;5062945;28;20468;-77
2023/09/23 09:35:17;;;;;;;8.60;4.57;;;;;;;13.87;100.00;101400.72;5064884;28;20025;-77
2023/09/23 09:37:45;;;;;;;8.65;3.83;;;;;;;13.79;100.00;101390.41;5064238;28;20029;-77
2023/09/23 09:40:18;;;;;;;11.25;4.50;;;;;;;13.82;100.00;101414.78;5064857;28;20025;-77
2023/09/23 09:42:54;;;;;;;9.95;3.88;;;;;;;13.83;100.00;101410.38;5064220;28;20052;-77
2023/09/23 09:45:20;;;;;;;10.55;4.57;;;;;;;13.84;100.00;101403.41;5051894;28;20419;-76
2023/09/23 09:47:50;;;;;;;7.43;4.40;;;;;;;13.84;100.00;101406.88;5064547;28;20112;-77
2023/09/23 09:50:16;;;;;;;8.32;4.80;;;;;;;13.96;100.00;101409.16;5065470;28;20020;-77
2023/09/23 09:52:45;;;;;;;9.13;3.97;;;;;;;14.05;100.00;101415.91;5065348;28;20029;-77
2023/09/23 09:55:18;;;;;;;8.48;3.70;;;;;;;14.02;100.00;101415.97;5063635;28;20464;-77
2023/09/23 09:57:44;;;;;;;7.18;3.70;;;;;;;14.05;100.00;101416.75;5066356;28;20078;-77
2023/09/23 10:00:15;;;;;;;9.27;4.20;;;;;;;14.20;100.00;101420.69;5062192;28;20040;-77
2023/09/23 10:02:43;;;;;;;9.80;4.55;;;;;;;14.18;100.00;101416.41;5067388;28;20384;-77
2023/09/23 10:05:17;;;;;;;9.63;4.68;;;;;;;14.31;100.00;101416.91;5058995;28;20051;-77
2023/09/23 10:07:55;;;;;;;6.72;3.75;;;;;;;14.34;100.00;101422.91;5067687;28;20025;-77
2023/09/23 10:10:31;;;;;;;7.13;3.95;;;;;;;14.40;100.00;101420.09;5060870;28;20021;-77
2023/09/23 10:13:18;;;;;;;10.45;4.38;;;;;;;14.46;100.00;101424.31;5066829;28;20090;-77
2023/09/23 10:15:44;;;;;;;8.20;4.68;;;;;;;14.48;100.00;101435.59;5048620;28;20024;-77
2023/09/23 10:18:14;;;;;;;11.02;4.38;;;;;;;14.57;100.00;101416.16;5061532;28;20045;-76
2023/09/23 10:20:48;;;;;;;10.73;4.07;;;;;;;14.83;100.00;101426.69;5062559;28;20057;-77
2023/09/23 10:23:15;;;;;;;12.25;4.28;;;;;;;14.92;100.00;101430.78;5064611;28;20410;-77
2023/09/23 10:25:45;;;;;;;10.80;4.45;;;;;;;14.86;100.00;101425.72;5062822;28;20024;-76
2023/09/23 10:28:22;;;;;;;12.38;4.20;;;;;;;14.77;100.00;101434.75;5063911;28;20091;-77
2023/09/23 10:31:02;;;;;;;9.45;4.15;;;;;;;14.59;100.00;101430.94;5062496;28;20859;-77
2023/09/23 10:33:29;;;;;;;11.20;5.57;;;;;;;14.40;100.00;101432.38;5064388;28;20089;-77
2023/09/23 10:35:56;;;;;;;7.15;4.60;;;;;;;14.37;100.00;101441.19;5061991;28;20021;-77
2023/09/23 10:38:23;;;;;;;9.00;4.72;;;;;;;14.38;100.00;101434.16;5064665;28;20036;-76
2023/09/23 10:40:52;;;;;;;9.65;5.07;;;;;;;14.38;100.00;101439.41;5062931;28;20021;-76
2023/09/23 10:43:20;;;;;;;9.13;4.72;;;;;;;14.42;100.00;101451.53;5063620;28;20028;-77
2023/09/23 10:45:45;;;;;;;7.70;4.55;;;;;;;14.41;100.00;101448.03;5043717;28;20072;-77
2023/09/23 10:48:14;;;;;;;8.48;5.03;;;;;;;14.39;100.00;101451.66;5063577;28;20480;-77
2023/09/23 10:50:40;;;;;;;6.88;4.82;;;;;;;14.41;100.00;101455.06;5057442;28;20039;-77
2023/09/23 10:53:06;;;;;;;9.05;4.95;;;;;;;14.45;100.00;101464.56;5058041;28;20025;-77
2023/09/23 10:55:34;;;;;;;9.55;6.38;;;;;;;14.42;100.00;101462.03;5063596;28;20499;-77
2023/09/23 10:58:00;;;;;;;9.20;5.70;;;;;;;14.29;100.00;101469.41;5059056;28;20039;-77
2023/09/23 11:00:25;;;;;;;14.68;6.53;;;;;;;14.17;100.00;101465.38;5047809;28;20078;-76
2023/09/23 11:02:52;;;;;;;10.73;5.63;;;;;;;14.16;100.00;101473.25;5062868;28;20024;-76
2023/09/23 11:05:20;;;;;;;7.85;6.05;;;;;;;14.23;100.00;101467.81;5059570;28;20469;-77
2023/09/23 11:07:45;;;;;;;10.57;6.28;;;;;;;14.41;100.00;101478.66;5060326;28;20104;-76